sensor_id;sensor_type;location;lat;lon;timestamp;P1;durP1;ratioP1;P2;durP2;ratioP2
26588;SDS011;14235;48.532;8.722;2024-03-25T00:01:38;2.28;;;2.05;;
26588;SDS011;14235;48.532;8.722;2024-03-25T00:04:09;2.30;;;2.10;;
26588;SDS011;14235;48.532;8.722;2024-03-25T00:06:38;4.35;;;2.78;;
26588;SDS011;14235;48.532;8.722;2024-03-25T00:09:04;2.70;;;2.10;;
26588;SDS011;14235;48.532;8.722;2024-03-25T00:11:33;2.53;;;2.33;;
26588;SDS011;14235;48.532;8.722;2024-03-25T00:13:59;2.78;;;1.95;;
26588;SDS011;14235;48.532;8.722;2024-03-25T00:16:26;2.83;;;2.28;;
26588;SDS011;14235;48.532;8.722;2024-03-25T00:18:52;3.33;;;2.50;;
26588;SDS011;14235;48.532;8.722;2024-03-25T00:21:19;4.57;;;2.47;;
26588;SDS011;14235;48.532;8.722;2024-03-25T00:23:45;2.83;;;2.33;;
26588;SDS011;14235;48.532;8.722;2024-03-25T00:26:12;5.22;;;2.55;;
26588;SDS011;14235;48.532;8.722;2024-03-25T00:28:38;3.50;;;2.50;;
26588;SDS011;14235;48.532;8.722;2024-03-25T00:31:06;2.65;;;2.40;;
26588;SDS011;14235;48.532;8.722;2024-03-25T00:33:33;3.47;;;2.70;;
26588;SDS011;14235;48.532;8.722;2024-03-25T00:36:01;2.92;;;2.50;;
26588;SDS011;14235;48.532;8.722;2024-03-25T00:38:27;4.35;;;2.75;;
26588;SDS011;14235;48.532;8.722;2024-03-25T00:40:54;2.40;;;2.10;;
26588;SDS011;14235;48.532;8.722;2024-03-25T00:43:27;2.40;;;2.20;;
26588;SDS011;14235;48.532;8.722;2024-03-25T00:45:57;2.40;;;2.30;;
26588;SDS011;14235;48.532;8.722;2024-03-25T00:48:25;5.78;;;2.70;;
26588;SDS011;14235;48.532;8.722;2024-03-25T00:50:53;3.25;;;2.80;;
26588;SDS011;14235;48.532;8.722;2024-03-25T00:53:29;3.05;;;2.40;;
26588;SDS011;14235;48.532;8.722;2024-03-25T00:56:01;3.53;;;2.10;;
26588;SDS011;14235;48.532;8.722;2024-03-25T00:58:29;4.32;;;3.00;;
26588;SDS011;14235;48.532;8.722;2024-03-25T01:00:57;3.63;;;2.58;;
26588;SDS011;14235;48.532;8.722;2024-03-25T01:03:26;3.40;;;2.50;;
26588;SDS011;14235;48.532;8.722;2024-03-25T01:05:59;4.95;;;2.58;;
26588;SDS011;14235;48.532;8.722;2024-03-25T01:12:20;2.70;;;2.50;;
26588;SDS011;14235;48.532;8.722;2024-03-25T01:18:15;2.53;;;2.33;;
26588;SDS011;14235;48.532;8.722;2024-03-25T01:21:03;3.40;;;2.70;;
26588;SDS011;14235;48.532;8.722;2024-03-25T01:26:23;3.92;;;2.92;;
26588;SDS011;14235;48.532;8.722;2024-03-25T01:32:43;2.88;;;2.67;;
26588;SDS011;14235;48.532;8.722;2024-03-25T01:35:37;3.38;;;2.67;;
26588;SDS011;14235;48.532;8.722;2024-03-25T01:38:15;3.05;;;2.70;;
26588;SDS011;14235;48.532;8.722;2024-03-25T01:41:07;2.85;;;2.65;;
26588;SDS011;14235;48.532;8.722;2024-03-25T01:43:43;2.90;;;2.60;;
26588;SDS011;14235;48.532;8.722;2024-03-25T01:46:18;2.78;;;2.58;;
26588;SDS011;14235;48.532;8.722;2024-03-25T01:49:04;2.70;;;2.50;;
26588;SDS011;14235;48.532;8.722;2024-03-25T01:54:54;2.67;;;2.47;;
26588;SDS011;14235;48.532;8.722;2024-03-25T02:06:56;6.65;;;3.13;;
26588;SDS011;14235;48.532;8.722;2024-03-25T02:16:28;5.53;;;2.40;;
26588;SDS011;14235;48.532;8.722;2024-03-25T02:19:05;3.60;;;2.20;;
26588;SDS011;14235;48.532;8.722;2024-03-25T02:21:31;5.57;;;2.55;;
26588;SDS011;14235;48.532;8.722;2024-03-25T02:23:57;2.13;;;2.03;;
26588;SDS011;14235;48.532;8.722;2024-03-25T02:26:25;5.20;;;2.83;;
26588;SDS011;14235;48.532;8.722;2024-03-25T02:28:51;2.53;;;2.30;;
26588;SDS011;14235;48.532;8.722;2024-03-25T02:31:17;3.25;;;2.45;;
26588;SDS011;14235;48.532;8.722;2024-03-25T02:33:43;2.67;;;2.47;;
26588;SDS011;14235;48.532;8.722;2024-03-25T02:36:09;2.53;;;2.33;;
26588;SDS011;14235;48.532;8.722;2024-03-25T02:38:35;3.42;;;2.25;;
26588;SDS011;14235;48.532;8.722;2024-03-25T02:41:01;2.20;;;2.00;;
26588;SDS011;14235;48.532;8.722;2024-03-25T02:43:28;2.15;;;2.05;;
26588;SDS011;14235;48.532;8.722;2024-03-25T02:45:54;2.30;;;2.10;;
26588;SDS011;14235;48.532;8.722;2024-03-25T02:48:20;2.50;;;2.10;;
26588;SDS011;14235;48.532;8.722;2024-03-25T02:50:46;3.08;;;2.30;;
26588;SDS011;14235;48.532;8.722;2024-03-25T02:53:12;2.45;;;2.20;;
26588;SDS011;14235;48.532;8.722;2024-03-25T02:55:38;2.05;;;1.95;;
26588;SDS011;14235;48.532;8.722;2024-03-25T02:58:04;2.40;;;2.20;;
26588;SDS011;14235;48.532;8.722;2024-03-25T03:00:30;2.67;;;2.47;;
26588;SDS011;14235;48.532;8.722;2024-03-25T03:02:56;2.00;;;1.90;;
26588;SDS011;14235;48.532;8.722;2024-03-25T03:05:22;2.33;;;1.92;;
26588;SDS011;14235;48.532;8.722;2024-03-25T03:07:48;3.33;;;2.20;;
26588;SDS011;14235;48.532;8.722;2024-03-25T03:10:14;2.70;;;2.50;;
26588;SDS011;14235;48.532;8.722;2024-03-25T03:12:41;2.50;;;2.30;;
26588;SDS011;14235;48.532;8.722;2024-03-25T03:15:07;3.53;;;2.40;;
26588;SDS011;14235;48.532;8.722;2024-03-25T03:17:33;2.10;;;2.00;;
26588;SDS011;14235;48.532;8.722;2024-03-25T03:19:59;2.92;;;2.30;;
26588;SDS011;14235;48.532;8.722;2024-03-25T03:22:25;2.63;;;2.30;;
26588;SDS011;14235;48.532;8.722;2024-03-25T03:24:51;2.17;;;1.90;;
26588;SDS011;14235;48.532;8.722;2024-03-25T03:27:17;3.75;;;2.35;;
26588;SDS011;14235;48.532;8.722;2024-03-25T03:29:43;2.67;;;2.20;;
26588;SDS011;14235;48.532;8.722;2024-03-25T03:32:09;5.60;;;2.60;;
26588;SDS011;14235;48.532;8.722;2024-03-25T03:34:35;4.03;;;2.37;;
26588;SDS011;14235;48.532;8.722;2024-03-25T03:37:01;2.53;;;2.33;;
26588;SDS011;14235;48.532;8.722;2024-03-25T03:39:27;3.10;;;2.33;;
26588;SDS011;14235;48.532;8.722;2024-03-25T03:41:53;2.73;;;2.50;;
26588;SDS011;14235;48.532;8.722;2024-03-25T03:44:18;5.38;;;2.85;;
26588;SDS011;14235;48.532;8.722;2024-03-25T03:46:44;3.30;;;2.43;;
26588;SDS011;14235;48.532;8.722;2024-03-25T03:49:10;6.73;;;3.03;;
26588;SDS011;14235;48.532;8.722;2024-03-25T03:51:36;2.70;;;2.50;;
26588;SDS011;14235;48.532;8.722;2024-03-25T03:54:02;3.00;;;2.67;;
26588;SDS011;14235;48.532;8.722;2024-03-25T03:56:28;3.53;;;2.80;;
26588;SDS011;14235;48.532;8.722;2024-03-25T03:58:54;3.03;;;2.47;;
26588;SDS011;14235;48.532;8.722;2024-03-25T04:01:20;5.17;;;2.63;;
26588;SDS011;14235;48.532;8.722;2024-03-25T04:03:46;3.73;;;2.43;;
26588;SDS011;14235;48.532;8.722;2024-03-25T04:06:12;2.73;;;2.30;;
26588;SDS011;14235;48.532;8.722;2024-03-25T04:08:39;4.90;;;2.60;;
26588;SDS011;14235;48.532;8.722;2024-03-25T04:11:05;2.50;;;2.30;;
26588;SDS011;14235;48.532;8.722;2024-03-25T04:13:31;3.23;;;2.47;;
26588;SDS011;14235;48.532;8.722;2024-03-25T04:16:00;3.30;;;2.38;;
26588;SDS011;14235;48.532;8.722;2024-03-25T04:18:27;3.80;;;2.53;;
26588;SDS011;14235;48.532;8.722;2024-03-25T04:20:53;3.13;;;2.40;;
26588;SDS011;14235;48.532;8.722;2024-03-25T04:23:19;2.33;;;2.13;;
26588;SDS011;14235;48.532;8.722;2024-03-25T04:25:45;3.85;;;2.70;;
26588;SDS011;14235;48.532;8.722;2024-03-25T04:28:11;2.50;;;2.30;;
26588;SDS011;14235;48.532;8.722;2024-03-25T04:30:37;2.70;;;2.45;;
26588;SDS011;14235;48.532;8.722;2024-03-25T04:33:03;3.58;;;2.42;;
26588;SDS011;14235;48.532;8.722;2024-03-25T04:35:29;8.05;;;6.25;;
26588;SDS011;14235;48.532;8.722;2024-03-25T04:37:55;3.90;;;3.47;;
26588;SDS011;14235;48.532;8.722;2024-03-25T04:40:21;3.83;;;2.60;;
26588;SDS011;14235;48.532;8.722;2024-03-25T04:42:48;3.37;;;2.73;;
26588;SDS011;14235;48.532;8.722;2024-03-25T04:45:14;5.13;;;3.50;;
26588;SDS011;14235;48.532;8.722;2024-03-25T04:47:40;5.00;;;4.03;;
26588;SDS011;14235;48.532;8.722;2024-03-25T04:50:06;3.63;;;3.10;;
26588;SDS011;14235;48.532;8.722;2024-03-25T04:52:33;3.13;;;2.93;;
26588;SDS011;14235;48.532;8.722;2024-03-25T04:54:58;2.83;;;2.60;;
26588;SDS011;14235;48.532;8.722;2024-03-25T04:57:24;3.00;;;2.70;;
26588;SDS011;14235;48.532;8.722;2024-03-25T04:59:50;2.70;;;2.50;;
26588;SDS011;14235;48.532;8.722;2024-03-25T05:02:16;3.30;;;3.00;;
26588;SDS011;14235;48.532;8.722;2024-03-25T05:04:42;3.03;;;2.60;;
26588;SDS011;14235;48.532;8.722;2024-03-25T05:07:08;4.07;;;2.80;;
26588;SDS011;14235;48.532;8.722;2024-03-25T05:09:35;3.10;;;2.67;;
26588;SDS011;14235;48.532;8.722;2024-03-25T05:12:01;3.43;;;2.50;;
26588;SDS011;14235;48.532;8.722;2024-03-25T05:14:27;3.42;;;2.72;;
26588;SDS011;14235;48.532;8.722;2024-03-25T05:16:53;3.23;;;2.30;;
26588;SDS011;14235;48.532;8.722;2024-03-25T05:19:19;2.60;;;2.40;;
26588;SDS011;14235;48.532;8.722;2024-03-25T05:21:45;3.00;;;2.80;;
26588;SDS011;14235;48.532;8.722;2024-03-25T05:24:11;3.77;;;2.90;;
26588;SDS011;14235;48.532;8.722;2024-03-25T05:26:37;4.83;;;4.30;;
26588;SDS011;14235;48.532;8.722;2024-03-25T05:29:03;3.63;;;3.33;;
26588;SDS011;14235;48.532;8.722;2024-03-25T05:31:29;4.43;;;3.40;;
26588;SDS011;14235;48.532;8.722;2024-03-25T05:33:55;3.53;;;3.17;;
26588;SDS011;14235;48.532;8.722;2024-03-25T05:36:22;3.87;;;3.20;;
26588;SDS011;14235;48.532;8.722;2024-03-25T05:38:48;4.60;;;3.70;;
26588;SDS011;14235;48.532;8.722;2024-03-25T05:41:14;4.03;;;3.63;;
26588;SDS011;14235;48.532;8.722;2024-03-25T05:43:40;3.60;;;3.27;;
26588;SDS011;14235;48.532;8.722;2024-03-25T05:46:06;2.85;;;2.63;;
26588;SDS011;14235;48.532;8.722;2024-03-25T05:48:33;3.85;;;3.40;;
26588;SDS011;14235;48.532;8.722;2024-03-25T05:51:03;3.50;;;3.20;;
26588;SDS011;14235;48.532;8.722;2024-03-25T05:53:32;3.63;;;3.33;;
26588;SDS011;14235;48.532;8.722;2024-03-25T05:55:58;4.33;;;3.20;;
26588;SDS011;14235;48.532;8.722;2024-03-25T05:58:24;3.40;;;3.10;;
26588;SDS011;14235;48.532;8.722;2024-03-25T06:00:51;3.75;;;3.40;;
26588;SDS011;14235;48.532;8.722;2024-03-25T06:03:20;3.27;;;3.07;;
26588;SDS011;14235;48.532;8.722;2024-03-25T06:05:46;3.28;;;2.95;;
26588;SDS011;14235;48.532;8.722;2024-03-25T06:08:12;2.88;;;2.67;;
26588;SDS011;14235;48.532;8.722;2024-03-25T06:10:51;2.70;;;2.50;;
26588;SDS011;14235;48.532;8.722;2024-03-25T06:13:17;2.58;;;2.35;;
26588;SDS011;14235;48.532;8.722;2024-03-25T06:15:43;3.70;;;2.97;;
26588;SDS011;14235;48.532;8.722;2024-03-25T06:18:10;5.75;;;3.85;;
26588;SDS011;14235;48.532;8.722;2024-03-25T06:20:36;3.90;;;3.60;;
26588;SDS011;14235;48.532;8.722;2024-03-25T06:23:02;5.07;;;3.53;;
26588;SDS011;14235;48.532;8.722;2024-03-25T06:25:29;5.80;;;3.67;;
26588;SDS011;14235;48.532;8.722;2024-03-25T06:27:55;3.97;;;3.30;;
26588;SDS011;14235;48.532;8.722;2024-03-25T06:30:21;3.70;;;3.40;;
26588;SDS011;14235;48.532;8.722;2024-03-25T06:33:06;4.37;;;3.50;;
26588;SDS011;14235;48.532;8.722;2024-03-25T06:35:50;4.37;;;3.37;;
26588;SDS011;14235;48.532;8.722;2024-03-25T06:38:17;3.83;;;3.17;;
26588;SDS011;14235;48.532;8.722;2024-03-25T06:40:44;4.25;;;3.05;;
26588;SDS011;14235;48.532;8.722;2024-03-25T06:43:10;3.00;;;2.80;;
26588;SDS011;14235;48.532;8.722;2024-03-25T06:45:36;3.63;;;3.33;;
26588;SDS011;14235;48.532;8.722;2024-03-25T06:48:02;3.33;;;2.65;;
26588;SDS011;14235;48.532;8.722;2024-03-25T06:50:28;3.30;;;2.83;;
26588;SDS011;14235;48.532;8.722;2024-03-25T06:52:54;3.03;;;2.72;;
26588;SDS011;14235;48.532;8.722;2024-03-25T06:55:20;3.30;;;3.00;;
26588;SDS011;14235;48.532;8.722;2024-03-25T06:57:50;3.17;;;2.95;;
26588;SDS011;14235;48.532;8.722;2024-03-25T07:00:16;5.35;;;3.28;;
26588;SDS011;14235;48.532;8.722;2024-03-25T07:02:42;3.45;;;3.15;;
26588;SDS011;14235;48.532;8.722;2024-03-25T07:05:08;3.72;;;3.17;;
26588;SDS011;14235;48.532;8.722;2024-03-25T07:07:34;4.00;;;3.60;;
26588;SDS011;14235;48.532;8.722;2024-03-25T07:10:00;3.90;;;3.55;;
26588;SDS011;14235;48.532;8.722;2024-03-25T07:12:26;5.97;;;3.65;;
26588;SDS011;14235;48.532;8.722;2024-03-25T07:14:53;5.10;;;3.72;;
26588;SDS011;14235;48.532;8.722;2024-03-25T07:17:19;4.85;;;3.38;;
26588;SDS011;14235;48.532;8.722;2024-03-25T07:19:46;3.38;;;3.17;;
26588;SDS011;14235;48.532;8.722;2024-03-25T07:22:12;3.75;;;3.13;;
26588;SDS011;14235;48.532;8.722;2024-03-25T07:24:38;5.35;;;3.70;;
26588;SDS011;14235;48.532;8.722;2024-03-25T07:27:04;4.57;;;3.67;;
26588;SDS011;14235;48.532;8.722;2024-03-25T07:29:31;3.20;;;3.00;;
26588;SDS011;14235;48.532;8.722;2024-03-25T07:31:57;5.25;;;3.30;;
26588;SDS011;14235;48.532;8.722;2024-03-25T07:34:23;6.03;;;3.47;;
26588;SDS011;14235;48.532;8.722;2024-03-25T07:36:49;3.83;;;3.53;;
26588;SDS011;14235;48.532;8.722;2024-03-25T07:39:15;4.47;;;3.63;;
26588;SDS011;14235;48.532;8.722;2024-03-25T07:41:41;8.00;;;4.18;;
26588;SDS011;14235;48.532;8.722;2024-03-25T07:44:07;5.20;;;4.30;;
26588;SDS011;14235;48.532;8.722;2024-03-25T07:46:34;5.75;;;4.70;;
26588;SDS011;14235;48.532;8.722;2024-03-25T07:49:00;4.95;;;4.50;;
26588;SDS011;14235;48.532;8.722;2024-03-25T07:51:26;4.32;;;3.85;;
26588;SDS011;14235;48.532;8.722;2024-03-25T07:53:52;5.65;;;4.07;;
26588;SDS011;14235;48.532;8.722;2024-03-25T07:56:18;5.25;;;3.65;;
26588;SDS011;14235;48.532;8.722;2024-03-25T07:58:44;6.00;;;4.20;;
26588;SDS011;14235;48.532;8.722;2024-03-25T08:01:10;4.28;;;3.78;;
26588;SDS011;14235;48.532;8.722;2024-03-25T08:03:36;6.72;;;4.75;;
26588;SDS011;14235;48.532;8.722;2024-03-25T08:06:02;5.28;;;3.92;;
26588;SDS011;14235;48.532;8.722;2024-03-25T08:08:28;4.57;;;3.33;;
26588;SDS011;14235;48.532;8.722;2024-03-25T08:10:54;5.68;;;2.95;;
26588;SDS011;14235;48.532;8.722;2024-03-25T08:13:21;6.53;;;3.25;;
26588;SDS011;14235;48.532;8.722;2024-03-25T08:15:47;4.50;;;2.78;;
26588;SDS011;14235;48.532;8.722;2024-03-25T08:18:13;6.82;;;3.20;;
26588;SDS011;14235;48.532;8.722;2024-03-25T08:20:39;3.50;;;3.00;;
26588;SDS011;14235;48.532;8.722;2024-03-25T08:23:05;9.77;;;3.45;;
26588;SDS011;14235;48.532;8.722;2024-03-25T08:25:31;4.68;;;3.05;;
26588;SDS011;14235;48.532;8.722;2024-03-25T08:27:57;4.95;;;2.85;;
26588;SDS011;14235;48.532;8.722;2024-03-25T08:30:23;2.92;;;2.65;;
26588;SDS011;14235;48.532;8.722;2024-03-25T08:32:49;4.85;;;3.25;;
26588;SDS011;14235;48.532;8.722;2024-03-25T08:35:16;6.35;;;3.08;;
26588;SDS011;14235;48.532;8.722;2024-03-25T08:37:42;6.22;;;3.30;;
26588;SDS011;14235;48.532;8.722;2024-03-25T08:40:08;4.50;;;3.30;;
26588;SDS011;14235;48.532;8.722;2024-03-25T08:42:34;7.15;;;3.08;;
26588;SDS011;14235;48.532;8.722;2024-03-25T08:45:00;4.35;;;2.80;;
26588;SDS011;14235;48.532;8.722;2024-03-25T08:47:26;4.18;;;3.10;;
26588;SDS011;14235;48.532;8.722;2024-03-25T08:49:52;3.28;;;2.58;;
26588;SDS011;14235;48.532;8.722;2024-03-25T08:52:18;5.40;;;2.78;;
26588;SDS011;14235;48.532;8.722;2024-03-25T08:54:44;6.07;;;2.80;;
26588;SDS011;14235;48.532;8.722;2024-03-25T08:57:10;3.45;;;2.70;;
26588;SDS011;14235;48.532;8.722;2024-03-25T08:59:36;4.85;;;2.63;;
26588;SDS011;14235;48.532;8.722;2024-03-25T09:02:02;4.75;;;2.97;;
26588;SDS011;14235;48.532;8.722;2024-03-25T09:04:28;5.40;;;2.60;;
26588;SDS011;14235;48.532;8.722;2024-03-25T09:06:54;5.05;;;2.80;;
26588;SDS011;14235;48.532;8.722;2024-03-25T09:09:20;2.92;;;2.65;;
26588;SDS011;14235;48.532;8.722;2024-03-25T09:12:04;4.25;;;2.67;;
26588;SDS011;14235;48.532;8.722;2024-03-25T09:14:31;2.78;;;2.58;;
26588;SDS011;14235;48.532;8.722;2024-03-25T09:16:58;2.75;;;2.28;;
26588;SDS011;14235;48.532;8.722;2024-03-25T09:19:24;3.55;;;2.30;;
26588;SDS011;14235;48.532;8.722;2024-03-25T09:21:50;3.58;;;2.80;;
26588;SDS011;14235;48.532;8.722;2024-03-25T09:24:16;3.92;;;2.53;;
26588;SDS011;14235;48.532;8.722;2024-03-25T09:26:44;4.53;;;2.30;;
26588;SDS011;14235;48.532;8.722;2024-03-25T09:29:11;2.97;;;2.17;;
26588;SDS011;14235;48.532;8.722;2024-03-25T09:31:37;3.92;;;2.00;;
26588;SDS011;14235;48.532;8.722;2024-03-25T09:34:04;5.65;;;2.50;;
26588;SDS011;14235;48.532;8.722;2024-03-25T09:36:30;3.00;;;2.55;;
26588;SDS011;14235;48.532;8.722;2024-03-25T09:38:56;4.35;;;2.30;;
26588;SDS011;14235;48.532;8.722;2024-03-25T09:41:22;6.75;;;2.40;;
26588;SDS011;14235;48.532;8.722;2024-03-25T09:43:51;3.33;;;2.30;;
26588;SDS011;14235;48.532;8.722;2024-03-25T09:46:18;2.83;;;2.55;;
26588;SDS011;14235;48.532;8.722;2024-03-25T09:48:44;4.20;;;2.55;;
26588;SDS011;14235;48.532;8.722;2024-03-25T09:51:10;3.42;;;2.33;;
26588;SDS011;14235;48.532;8.722;2024-03-25T09:53:36;2.83;;;2.33;;
26588;SDS011;14235;48.532;8.722;2024-03-25T09:56:02;3.28;;;2.10;;
26588;SDS011;14235;48.532;8.722;2024-03-25T09:58:28;3.17;;;2.38;;
26588;SDS011;14235;48.532;8.722;2024-03-25T10:00:54;4.35;;;2.30;;
26588;SDS011;14235;48.532;8.722;2024-03-25T10:03:21;2.22;;;1.90;;
26588;SDS011;14235;48.532;8.722;2024-03-25T10:05:47;4.05;;;2.20;;
26588;SDS011;14235;48.532;8.722;2024-03-25T10:08:13;3.40;;;2.25;;
26588;SDS011;14235;48.532;8.722;2024-03-25T10:10:39;3.90;;;2.10;;
26588;SDS011;14235;48.532;8.722;2024-03-25T10:13:05;4.53;;;2.42;;
26588;SDS011;14235;48.532;8.722;2024-03-25T10:15:32;3.80;;;2.70;;
26588;SDS011;14235;48.532;8.722;2024-03-25T10:17:58;4.40;;;2.80;;
26588;SDS011;14235;48.532;8.722;2024-03-25T10:20:24;3.47;;;2.55;;
26588;SDS011;14235;48.532;8.722;2024-03-25T10:22:50;3.78;;;2.30;;
26588;SDS011;14235;48.532;8.722;2024-03-25T10:25:25;1.80;;;1.70;;
26588;SDS011;14235;48.532;8.722;2024-03-25T10:28:01;2.50;;;1.83;;
26588;SDS011;14235;48.532;8.722;2024-03-25T10:30:28;1.90;;;1.80;;
26588;SDS011;14235;48.532;8.722;2024-03-25T10:33:06;2.30;;;1.75;;
26588;SDS011;14235;48.532;8.722;2024-03-25T10:35:33;4.15;;;2.10;;
26588;SDS011;14235;48.532;8.722;2024-03-25T10:38:00;1.77;;;1.67;;
26588;SDS011;14235;48.532;8.722;2024-03-25T10:40:27;1.38;;;1.27;;
26588;SDS011;14235;48.532;8.722;2024-03-25T10:43:11;2.03;;;1.70;;
26588;SDS011;14235;48.532;8.722;2024-03-25T10:45:40;1.48;;;1.33;;
26588;SDS011;14235;48.532;8.722;2024-03-25T10:48:09;2.00;;;1.70;;
26588;SDS011;14235;48.532;8.722;2024-03-25T10:50:36;2.17;;;1.42;;
26588;SDS011;14235;48.532;8.722;2024-03-25T10:53:02;2.05;;;1.40;;
26588;SDS011;14235;48.532;8.722;2024-03-25T10:55:30;1.67;;;1.40;;
26588;SDS011;14235;48.532;8.722;2024-03-25T10:57:58;1.77;;;1.67;;
26588;SDS011;14235;48.532;8.722;2024-03-25T11:00:25;1.83;;;1.70;;
26588;SDS011;14235;48.532;8.722;2024-03-25T11:02:51;2.35;;;1.58;;
26588;SDS011;14235;48.532;8.722;2024-03-25T11:05:18;1.75;;;1.65;;
26588;SDS011;14235;48.532;8.722;2024-03-25T11:07:44;2.63;;;1.83;;
26588;SDS011;14235;48.532;8.722;2024-03-25T11:10:11;2.30;;;1.92;;
26588;SDS011;14235;48.532;8.722;2024-03-25T11:12:38;2.33;;;1.80;;
26588;SDS011;14235;48.532;8.722;2024-03-25T11:15:06;3.40;;;1.90;;
26588;SDS011;14235;48.532;8.722;2024-03-25T11:17:33;2.58;;;1.98;;
26588;SDS011;14235;48.532;8.722;2024-03-25T11:20:11;2.15;;;1.95;;
26588;SDS011;14235;48.532;8.722;2024-03-25T11:22:51;3.15;;;1.98;;
26588;SDS011;14235;48.532;8.722;2024-03-25T11:25:17;2.25;;;2.05;;
26588;SDS011;14235;48.532;8.722;2024-03-25T11:27:44;1.80;;;1.70;;
26588;SDS011;14235;48.532;8.722;2024-03-25T11:30:10;2.60;;;2.08;;
26588;SDS011;14235;48.532;8.722;2024-03-25T11:32:43;2.97;;;2.20;;
26588;SDS011;14235;48.532;8.722;2024-03-25T11:35:10;1.95;;;1.80;;
26588;SDS011;14235;48.532;8.722;2024-03-25T11:37:42;4.10;;;1.90;;
26588;SDS011;14235;48.532;8.722;2024-03-25T11:40:09;2.50;;;1.50;;
26588;SDS011;14235;48.532;8.722;2024-03-25T11:42:38;2.58;;;1.75;;
26588;SDS011;14235;48.532;8.722;2024-03-25T11:45:07;1.58;;;1.40;;
26588;SDS011;14235;48.532;8.722;2024-03-25T11:47:33;1.60;;;1.50;;
26588;SDS011;14235;48.532;8.722;2024-03-25T11:50:00;3.25;;;1.50;;
26588;SDS011;14235;48.532;8.722;2024-03-25T11:52:29;2.47;;;1.30;;
26588;SDS011;14235;48.532;8.722;2024-03-25T11:54:55;1.30;;;1.20;;
26588;SDS011;14235;48.532;8.722;2024-03-25T11:57:22;1.60;;;1.40;;
26588;SDS011;14235;48.532;8.722;2024-03-25T11:59:48;2.63;;;1.60;;
26588;SDS011;14235;48.532;8.722;2024-03-25T12:02:17;2.97;;;1.50;;
26588;SDS011;14235;48.532;8.722;2024-03-25T12:04:44;1.60;;;1.50;;
26588;SDS011;14235;48.532;8.722;2024-03-25T12:07:16;1.80;;;1.55;;
26588;SDS011;14235;48.532;8.722;2024-03-25T12:09:42;2.90;;;1.60;;
26588;SDS011;14235;48.532;8.722;2024-03-25T12:12:27;2.30;;;1.52;;
26588;SDS011;14235;48.532;8.722;2024-03-25T12:14:54;1.83;;;1.23;;
26588;SDS011;14235;48.532;8.722;2024-03-25T12:17:21;1.67;;;1.40;;
26588;SDS011;14235;48.532;8.722;2024-03-25T12:20:04;2.28;;;1.63;;
26588;SDS011;14235;48.532;8.722;2024-03-25T12:22:30;3.42;;;1.92;;
26588;SDS011;14235;48.532;8.722;2024-03-25T12:24:57;3.15;;;1.58;;
26588;SDS011;14235;48.532;8.722;2024-03-25T12:27:24;1.67;;;1.58;;
26588;SDS011;14235;48.532;8.722;2024-03-25T12:29:59;1.52;;;1.40;;
26588;SDS011;14235;48.532;8.722;2024-03-25T12:32:44;1.33;;;1.23;;
26588;SDS011;14235;48.532;8.722;2024-03-25T12:35:11;1.40;;;1.30;;
26588;SDS011;14235;48.532;8.722;2024-03-25T12:37:37;2.22;;;1.00;;
26588;SDS011;14235;48.532;8.722;2024-03-25T12:40:04;1.83;;;1.17;;
26588;SDS011;14235;48.532;8.722;2024-03-25T12:42:31;2.05;;;1.38;;
26588;SDS011;14235;48.532;8.722;2024-03-25T12:44:57;2.67;;;1.40;;
26588;SDS011;14235;48.532;8.722;2024-03-25T12:47:23;1.77;;;1.50;;
26588;SDS011;14235;48.532;8.722;2024-03-25T12:49:49;1.55;;;1.33;;
26588;SDS011;14235;48.532;8.722;2024-03-25T12:52:15;1.65;;;1.42;;
26588;SDS011;14235;48.532;8.722;2024-03-25T12:54:41;2.03;;;1.35;;
26588;SDS011;14235;48.532;8.722;2024-03-25T12:57:07;1.40;;;1.30;;
26588;SDS011;14235;48.532;8.722;2024-03-25T12:59:33;1.33;;;1.30;;
26588;SDS011;14235;48.532;8.722;2024-03-25T13:01:59;2.38;;;1.42;;
26588;SDS011;14235;48.532;8.722;2024-03-25T13:04:26;1.88;;;1.50;;
26588;SDS011;14235;48.532;8.722;2024-03-25T13:06:52;1.70;;;1.60;;
26588;SDS011;14235;48.532;8.722;2024-03-25T13:09:18;3.72;;;1.40;;
26588;SDS011;14235;48.532;8.722;2024-03-25T13:11:44;2.20;;;1.70;;
26588;SDS011;14235;48.532;8.722;2024-03-25T13:14:13;2.03;;;1.83;;
26588;SDS011;14235;48.532;8.722;2024-03-25T13:16:41;2.10;;;1.90;;
26588;SDS011;14235;48.532;8.722;2024-03-25T13:19:06;2.95;;;1.95;;
26588;SDS011;14235;48.532;8.722;2024-03-25T13:21:33;1.98;;;1.77;;
26588;SDS011;14235;48.532;8.722;2024-03-25T13:23:59;2.53;;;1.55;;
26588;SDS011;14235;48.532;8.722;2024-03-25T13:26:25;3.85;;;1.63;;
26588;SDS011;14235;48.532;8.722;2024-03-25T13:28:51;1.85;;;1.67;;
26588;SDS011;14235;48.532;8.722;2024-03-25T13:31:17;4.25;;;1.67;;
26588;SDS011;14235;48.532;8.722;2024-03-25T13:33:43;2.45;;;1.70;;
26588;SDS011;14235;48.532;8.722;2024-03-25T13:36:09;1.70;;;1.60;;
26588;SDS011;14235;48.532;8.722;2024-03-25T13:38:35;1.73;;;1.40;;
26588;SDS011;14235;48.532;8.722;2024-03-25T13:41:01;1.60;;;1.50;;
26588;SDS011;14235;48.532;8.722;2024-03-25T13:43:27;2.88;;;1.60;;
26588;SDS011;14235;48.532;8.722;2024-03-25T13:45:53;2.03;;;1.73;;
26588;SDS011;14235;48.532;8.722;2024-03-25T13:48:19;1.70;;;1.40;;
26588;SDS011;14235;48.532;8.722;2024-03-25T13:50:45;1.92;;;1.67;;
26588;SDS011;14235;48.532;8.722;2024-03-25T13:53:11;2.25;;;1.80;;
26588;SDS011;14235;48.532;8.722;2024-03-25T13:55:37;2.00;;;1.80;;
26588;SDS011;14235;48.532;8.722;2024-03-25T13:58:04;2.47;;;2.13;;
26588;SDS011;14235;48.532;8.722;2024-03-25T14:00:33;1.83;;;1.70;;
26588;SDS011;14235;48.532;8.722;2024-03-25T14:03:01;1.70;;;1.60;;
26588;SDS011;14235;48.532;8.722;2024-03-25T14:05:27;2.78;;;1.70;;
26588;SDS011;14235;48.532;8.722;2024-03-25T14:07:53;1.88;;;1.50;;
26588;SDS011;14235;48.532;8.722;2024-03-25T14:10:19;1.80;;;1.70;;
26588;SDS011;14235;48.532;8.722;2024-03-25T14:12:45;1.95;;;1.60;;
26588;SDS011;14235;48.532;8.722;2024-03-25T14:15:11;1.92;;;1.60;;
26588;SDS011;14235;48.532;8.722;2024-03-25T14:17:37;2.85;;;1.80;;
26588;SDS011;14235;48.532;8.722;2024-03-25T14:20:03;1.83;;;1.50;;
26588;SDS011;14235;48.532;8.722;2024-03-25T14:22:31;3.08;;;1.73;;
26588;SDS011;14235;48.532;8.722;2024-03-25T14:24:57;1.60;;;1.50;;
26588;SDS011;14235;48.532;8.722;2024-03-25T14:27:24;1.73;;;1.63;;
26588;SDS011;14235;48.532;8.722;2024-03-25T14:29:50;1.73;;;1.60;;
26588;SDS011;14235;48.532;8.722;2024-03-25T14:32:19;1.50;;;1.40;;
26588;SDS011;14235;48.532;8.722;2024-03-25T14:34:45;1.60;;;1.48;;
26588;SDS011;14235;48.532;8.722;2024-03-25T14:37:11;2.03;;;1.40;;
26588;SDS011;14235;48.532;8.722;2024-03-25T14:39:37;2.42;;;1.40;;
26588;SDS011;14235;48.532;8.722;2024-03-25T14:42:03;1.85;;;1.35;;
26588;SDS011;14235;48.532;8.722;2024-03-25T14:44:29;1.70;;;1.60;;
26588;SDS011;14235;48.532;8.722;2024-03-25T14:46:55;2.55;;;1.50;;
26588;SDS011;14235;48.532;8.722;2024-03-25T14:49:23;3.15;;;1.50;;
26588;SDS011;14235;48.532;8.722;2024-03-25T14:51:49;2.67;;;1.38;;
26588;SDS011;14235;48.532;8.722;2024-03-25T14:54:17;1.30;;;1.20;;
26588;SDS011;14235;48.532;8.722;2024-03-25T14:56:43;1.00;;;1.00;;
26588;SDS011;14235;48.532;8.722;2024-03-25T14:59:09;1.73;;;1.10;;
26588;SDS011;14235;48.532;8.722;2024-03-25T15:01:35;1.88;;;1.40;;
26588;SDS011;14235;48.532;8.722;2024-03-25T15:04:02;2.15;;;1.50;;
26588;SDS011;14235;48.532;8.722;2024-03-25T15:06:28;2.20;;;1.30;;
26588;SDS011;14235;48.532;8.722;2024-03-25T15:08:55;1.55;;;1.08;;
26588;SDS011;14235;48.532;8.722;2024-03-25T15:11:21;2.42;;;1.20;;
26588;SDS011;14235;48.532;8.722;2024-03-25T15:13:47;1.58;;;1.48;;
26588;SDS011;14235;48.532;8.722;2024-03-25T15:16:13;1.63;;;1.42;;
26588;SDS011;14235;48.532;8.722;2024-03-25T15:18:39;2.20;;;1.35;;
26588;SDS011;14235;48.532;8.722;2024-03-25T15:21:05;2.10;;;1.40;;
26588;SDS011;14235;48.532;8.722;2024-03-25T15:23:31;1.35;;;1.20;;